Time;durP1;ratioP1;P1;durP2;ratioP2;P2;SDS_P1;SDS_P2;PMS_P1;PMS_P2;Temp;Humidity;BMP_temperature;BMP_pressure;BME280_temperature;BME280_humidity;BME280_pressure;Samples;Min_cycle;Max_cycle;Signal;HPM_P1;HPM_P2
2021/07/26 00:01:32;;;;;;;;;;;;;;;;;;10313393;28;20258;-63
2021/07/26 00:06:29;;;;;;;;;;;;;;;;;;10319866;28;20011;-62
2021/07/26 00:11:26;;;;;;;;;;;;;;;;;;10322611;28;20275;-62
2021/07/26 00:16:24;;;;;;;;;;;;;;;;;;10315684;28;19951;-63
2021/07/26 00:21:21;;;;;;;;;;;;;;;;;;10322499;28;20330;-62
2021/07/26 00:26:19;;;;;;;;;;;;;;;;;;10326642;28;20030;-62
2021/07/26 00:31:16;;;;;;;;;;;;;;;;;;10317452;28;20235;-62
2021/07/26 00:36:13;;;;;;;;;;;;;;;;;;10308602;28;20341;-63
2021/07/26 00:41:11;;;;;;;;;;;;;;;;;;10317744;28;19963;-63
2021/07/26 00:46:08;;;;;;;;;;;;;;;;;;10324286;28;19921;-62
2021/07/26 00:51:05;;;;;;;;;;;;;;;;;;10318781;28;19954;-63
2021/07/26 00:56:02;;;;;;;;;;;;;;;;;;10332698;28;19923;-61
2021/07/26 01:01:00;;;;;;;;;;;;;;;;;;10318085;28;19916;-62
2021/07/26 01:05:57;;;;;;;;;;;;;;;;;;10322367;28;19925;-61
2021/07/26 01:10:55;;;;;;;;;;;;;;;;;;10328013;28;19920;-64
2021/07/26 01:15:52;;;;;;;;;;;;;;;;;;10312085;28;19936;-63
2021/07/26 01:20:49;;;;;;;;;;;;;;;;;;10313900;28;20271;-64
2021/07/26 01:25:46;;;;;;;;;;;;;;;;;;10315679;28;19925;-62
2021/07/26 01:30:44;;;;;;;;;;;;;;;;;;10309198;28;19927;-62
2021/07/26 01:35:41;;;;;;;;;;;;;;;;;;10321424;28;20378;-63
2021/07/26 01:40:39;;;;;;;;;;;;;;;;;;10321630;28;19918;-62
2021/07/26 01:45:36;;;;;;;;;;;;;;;;;;10325600;28;19950;-61
2021/07/26 01:50:33;;;;;;;;;;;;;;;;;;10319856;28;19951;-62
2021/07/26 01:55:31;;;;;;;;;;;;;;;;;;10320250;28;19990;-63
2021/07/26 02:00:28;;;;;;;;;;;;;;;;;;10321216;28;21082;-62
2021/07/26 02:05:25;;;;;;;;;;;;;;;;;;10322774;28;19921;-63
2021/07/26 02:10:23;;;;;;;;;;;;;;;;;;10326493;28;21021;-63
2021/07/26 02:15:20;;;;;;;;;;;;;;;;;;10315354;28;20460;-62
2021/07/26 02:20:17;;;;;;;;;;;;;;;;;;10308211;28;19932;-62
2021/07/26 02:25:17;;;;;;;;;;;;;;;;;;10325057;28;20188;-63
2021/07/26 02:30:14;;;;;;;;;;;;;;;;;;10321879;28;19924;-62
2021/07/26 02:35:11;;;;;;;;;;;;;;;;;;10315349;28;19939;-62
2021/07/26 02:40:08;;;;;;;;;;;;;;;;;;10321475;28;20386;-63
2021/07/26 02:45:06;;;;;;;;;;;;;;;;;;10328516;28;19917;-63
2021/07/26 02:50:03;;;;;;;;;;;;;;;;;;10309380;28;19943;-62
2021/07/26 02:55:00;;;;;;;;;;;;;;;;;;10317521;28;20017;-63
2021/07/26 02:59:58;;;;;;;;;;;;;;;;;;10330879;28;19924;-63
2021/07/26 03:04:55;;;;;;;;;;;;;;;;;;10323815;28;19925;-63
2021/07/26 03:09:52;;;;;;;;;;;;;;;;;;10310949;28;20310;-63
2021/07/26 03:14:49;;;;;;;;;;;;;;;;;;10316713;28;19956;-64
2021/07/26 03:19:47;;;;;;;;;;;;;;;;;;10325881;28;19940;-62
2021/07/26 03:24:44;;;;;;;;;;;;;;;;;;10326471;28;19916;-63
2021/07/26 03:29:41;;;;;;;;;;;;;;;;;;10323018;28;19921;-62
2021/07/26 03:34:38;;;;;;;;;;;;;;;;;;10318863;28;19917;-63
2021/07/26 03:39:36;;;;;;;;;;;;;;;;;;10326793;28;20286;-62
2021/07/26 03:44:33;;;;;;;;;;;;;;;;;;10318512;28;19917;-61
2021/07/26 03:49:30;;;;;;;;;;;;;;;;;;10325869;28;19924;-62
2021/07/26 03:54:27;;;;;;;;;;;;;;;;;;10321812;28;20354;-63
2021/07/26 03:59:25;;;;;;;;;;;;;;;;;;10314613;28;20008;-61
2021/07/26 04:04:22;;;;;;;;;;;;;;;;;;10304911;28;19920;-62
2021/07/26 04:09:22;;;;;;;;;;;;;;;;;;10314527;28;19921;-62
2021/07/26 04:14:22;;;;;;;;;;;;;;;;;;10322061;28;19999;-62
2021/07/26 04:19:19;;;;;;;;;;;;;;;;;;10324860;28;19917;-62
2021/07/26 04:24:17;;;;;;;;;;;;;;;;;;10324562;28;20301;-61
2021/07/26 04:29:15;;;;;;;;;;;;;;;;;;10321558;28;19925;-62
2021/07/26 04:34:12;;;;;;;;;;;;;;;;;;10306953;28;20012;-62
2021/07/26 04:39:09;;;;;;;;;;;;;;;;;;10306084;28;19973;-62
2021/07/26 04:44:07;;;;;;;;;;;;;;;;;;10314253;28;19931;-62
2021/07/26 04:49:04;;;;;;;;;;;;;;;;;;10321102;28;19985;-62
2021/07/26 04:54:01;;;;;;;;;;;;;;;;;;10313678;28;19963;-63
2021/07/26 04:58:58;;;;;;;;;;;;;;;;;;10324105;28;19925;-63
2021/07/26 05:03:56;;;;;;;;;;;;;;;;;;10314721;28;20302;-62
2021/07/26 05:08:53;;;;;;;;;;;;;;;;;;10330821;28;19943;-63
2021/07/26 05:13:50;;;;;;;;;;;;;;;;;;10334174;28;19943;-63
2021/07/26 05:18:52;;;;;;;;;;;;;;;;;;10325251;28;19917;-63
2021/07/26 05:23:49;;;;;;;;;;;;;;;;;;10331335;28;20393;-63
2021/07/26 05:28:46;;;;;;;;;;;;;;;;;;10330884;28;19975;-62
2021/07/26 05:33:45;;;;;;;;;;;;;;;;;;10336818;28;20031;-62
2021/07/26 05:38:42;;;;;;;;;;;;;;;;;;10331416;28;19990;-62
2021/07/26 05:43:39;;;;;;;;;;;;;;;;;;10332804;28;19917;-65
2021/07/26 05:48:36;;;;;;;;;;;;;;;;;;10300062;28;19921;-63
2021/07/26 05:53:34;;;;;;;;;;;;;;;;;;10328661;28;19921;-63
2021/07/26 05:58:32;;;;;;;;;;;;;;;;;;10326836;28;19995;-61
2021/07/26 06:03:29;;;;;;;;;;;;;;;;;;10320990;28;19916;-62
2021/07/26 06:08:27;;;;;;;;;;;;;;;;;;10323198;28;19921;-62
2021/07/26 06:13:24;;;;;;;;;;;;;;;;;;10312650;28;19917;-63
2021/07/26 06:18:21;;;;;;;;;;;;;;;;;;10333989;28;19927;-62
2021/07/26 06:23:22;;;;;;;;;;;;;;;;;;10324368;28;19940;-62
2021/07/26 06:28:19;;;;;;;;;;;;;;;;;;10308475;28;19921;-62
2021/07/26 06:33:16;;;;;;;;;;;;;;;;;;10319312;28;20303;-63
2021/07/26 06:38:14;;;;;;;;;;;;;;;;;;10349892;28;19997;-63
2021/07/26 06:43:12;;;;;;;;;;;;;;;;;;10325017;28;19943;-63
2021/07/26 06:48:09;;;;;;;;;;;;;;;;;;10334435;28;19924;-63
2021/07/26 06:53:07;;;;;;;;;;;;;;;;;;10318576;28;19919;-63
2021/07/26 06:58:04;;;;;;;;;;;;;;;;;;10321083;28;20272;-63
2021/07/26 07:03:02;;;;;;;;;;;;;;;;;;10316296;28;19913;-63
2021/07/26 07:07:59;;;;;;;;;;;;;;;;;;10305073;28;19924;-63
2021/07/26 07:12:56;;;;;;;;;;;;;;;;;;10317324;28;19913;-64
2021/07/26 07:17:54;;;;;;;;;;;;;;;;;;10320509;28;19920;-62
2021/07/26 07:22:52;;;;;;;;;;;;;;;;;;10311760;28;20008;-62
2021/07/26 07:27:50;;;;;;;;;;;;;;;;;;10331822;28;20063;-65
2021/07/26 07:32:47;;;;;;;;;;;;;;;;;;10315340;28;20035;-63
2021/07/26 07:37:44;;;;;;;;;;;;;;;;;;10335300;28;19921;-62
2021/07/26 07:42:41;;;;;;;;;;;;;;;;;;10319854;28;19917;-63
2021/07/26 07:47:40;;;;;;;;;;;;;;;;;;10323467;28;20020;-63
2021/07/26 07:52:38;;;;;;;;;;;;;;;;;;10322122;28;19923;-63
2021/07/26 07:57:36;;;;;;;;;;;;;;;;;;10332319;28;19921;-62
2021/07/26 08:02:33;;;;;;;;;;;;;;;;;;10315492;28;20015;-63
2021/07/26 08:07:30;;;;;;;;;;;;;;;;;;10330077;28;19940;-64
2021/07/26 08:12:28;;;;;;;;;;;;;;;;;;10330305;28;19979;-64
2021/07/26 08:17:25;;;;;;;;;;;;;;;;;;10306787;28;19929;-64
2021/07/26 08:22:22;;;;;;;;;;;;;;;;;;10324103;28;19916;-63
2021/07/26 08:27:19;;;;;;;;;;;;;;;;;;10311164;28;20302;-65
2021/07/26 08:32:17;;;;;;;;;;;;;;;;;;10323697;28;19984;-65
2021/07/26 08:37:14;;;;;;;;;;;;;;;;;;10318838;28;19923;-62
2021/07/26 08:42:11;;;;;;;;;;;;;;;;;;10335263;28;19944;-62
2021/07/26 08:47:09;;;;;;;;;;;;;;;;;;10332514;28;19929;-62
2021/07/26 08:52:06;;;;;;;;;;;;;;;;;;10341358;28;20394;-62
2021/07/26 08:57:03;;;;;;;;;;;;;;;;;;10328617;28;19917;-62
2021/07/26 09:02:01;;;;;;;;;;;;;;;;;;10318118;28;20305;-60
2021/07/26 09:06:58;;;;;;;;;;;;;;;;;;10347506;28;19960;-61
2021/07/26 09:11:56;;;;;;;;;;;;;;;;;;10333574;28;20023;-61
2021/07/26 09:16:53;;;;;;;;;;;;;;;;;;10322982;28;20035;-59
2021/07/26 09:21:50;;;;;;;;;;;;;;;;;;10322217;28;19917;-62
2021/07/26 09:26:48;;;;;;;;;;;;;;;;;;10336496;28;19929;-61
2021/07/26 09:31:45;;;;;;;;;;;;;;;;;;10333895;28;19917;-60
2021/07/26 09:36:43;;;;;;;;;;;;;;;;;;10299168;28;19917;-60
2021/07/26 09:41:40;;;;;;;;;;;;;;;;;;10333812;28;19920;-60
2021/07/26 09:46:39;;;;;;;;;;;;;;;;;;10312850;28;19947;-60
2021/07/26 09:51:36;;;;;;;;;;;;;;;;;;10331939;28;19970;-60
2021/07/26 09:56:33;;;;;;;;;;;;;;;;;;10330358;28;19970;-59
2021/07/26 10:01:31;;;;;;;;;;;;;;;;;;10319554;28;19917;-63
2021/07/26 10:06:28;;;;;;;;;;;;;;;;;;10320181;28;20489;-63
2021/07/26 10:11:25;;;;;;;;;;;;;;;;;;10332699;28;20278;-62
2021/07/26 10:16:23;;;;;;;;;;;;;;;;;;10322329;28;19925;-62
2021/07/26 10:21:20;;;;;;;;;;;;;;;;;;10338822;28;19948;-62
2021/07/26 10:26:17;;;;;;;;;;;;;;;;;;10323753;28;19928;-62
2021/07/26 10:31:14;;;;;;;;;;;;;;;;;;10335879;28;20389;-61
2021/07/26 10:36:12;;;;;;;;;;;;;;;;;;10316527;28;19962;-63
2021/07/26 10:41:09;;;;;;;;;;;;;;;;;;10324293;28;20088;-61
2021/07/26 10:46:06;;;;;;;;;;;;;;;;;;10322512;28;19925;-62
2021/07/26 10:51:03;;;;;;;;;;;;;;;;;;10312597;28;19917;-61
2021/07/26 10:56:02;;;;;;;;;;;;;;;;;;10317413;28;19928;-61
2021/07/26 11:01:00;;;;;;;;;;;;;;;;;;10318563;28;20399;-62
2021/07/26 11:05:57;;;;;;;;;;;;;;;;;;10314566;28;19921;-62
2021/07/26 11:10:55;;;;;;;;;;;;;;;;;;10319523;28;19921;-63
2021/07/26 11:15:53;;;;;;;;;;;;;;;;;;10318901;28;20004;-61
2021/07/26 11:20:50;;;;;;;;;;;;;;;;;;10320578;28;19959;-61
2021/07/26 11:25:47;;;;;;;;;;;;;;;;;;10306307;28;19955;-62
2021/07/26 11:30:44;;;;;;;;;;;;;;;;;;10312038;28;19921;-61
2021/07/26 11:35:42;;;;;;;;;;;;;;;;;;10316700;28;19959;-62
2021/07/26 11:40:39;;;;;;;;;;;;;;;;;;10297957;28;20595;-62
2021/07/26 11:45:36;;;;;;;;;;;;;;;;;;10314531;28;19932;-62
2021/07/26 11:50:34;;;;;;;;;;;;;;;;;;10309118;28;19968;-61
2021/07/26 11:55:31;;;;;;;;;;;;;;;;;;10308199;28;20003;-61
2021/07/26 12:00:28;;;;;;;;;;;;;;;;;;10307765;28;20302;-63
2021/07/26 12:05:26;;;;;;;;;;;;;;;;;;10332829;28;19924;-62
2021/07/26 12:10:23;;;;;;;;;;;;;;;;;;10324119;28;19927;-61
2021/07/26 12:15:20;;;;;;;;;;;;;;;;;;10297344;28;20301;-62
2021/07/26 12:20:18;;;;;;;;;;;;;;;;;;10312396;28;19917;-61
2021/07/26 12:25:15;;;;;;;;;;;;;;;;;;10311662;28;19952;-61
2021/07/26 12:30:13;;;;;;;;;;;;;;;;;;10312552;28;19929;-61
2021/07/26 12:35:10;;;;;;;;;;;;;;;;;;10327024;28;20401;-61
2021/07/26 12:40:07;;;;;;;;;;;;;;;;;;10318434;28;19917;-62
2021/07/26 12:45:07;;;;;;;;;;;;;;;;;;10316655;28;19921;-61
2021/07/26 12:50:04;;;;;;;;;;;;;;;;;;10333167;28;20456;-62
2021/07/26 12:55:02;;;;;;;;;;;;;;;;;;10312670;28;19940;-61
2021/07/26 12:59:59;;;;;;;;;;;;;;;;;;10307539;28;19917;-61
2021/07/26 13:04:56;;;;;;;;;;;;;;;;;;10309560;28;19963;-61
2021/07/26 13:09:53;;;;;;;;;;;;;;;;;;10317111;28;19929;-61
2021/07/26 13:14:51;;;;;;;;;;;;;;;;;;10321477;28;19928;-61
2021/07/26 13:19:48;;;;;;;;;;;;;;;;;;10305793;28;19966;-61
2021/07/26 13:24:45;;;;;;;;;;;;;;;;;;10293241;28;19924;-61
2021/07/26 13:29:43;;;;;;;;;;;;;;;;;;10328191;28;19928;-61
2021/07/26 13:34:40;;;;;;;;;;;;;;;;;;10325095;28;19917;-60
2021/07/26 13:39:37;;;;;;;;;;;;;;;;;;10329433;28;20227;-61
2021/07/26 13:44:35;;;;;;;;;;;;;;;;;;10309303;28;20063;-62
2021/07/26 13:49:32;;;;;;;;;;;;;;;;;;10311205;28;20338;-61
2021/07/26 13:54:30;;;;;;;;;;;;;;;;;;10325897;28;19925;-61
2021/07/26 13:59:27;;;;;;;;;;;;;;;;;;10315052;28;19924;-61
2021/07/26 14:04:24;;;;;;;;;;;;;;;;;;10321579;28;19920;-61
2021/07/26 14:09:21;;;;;;;;;;;;;;;;;;10327257;28;19921;-61
2021/07/26 14:14:19;;;;;;;;;;;;;;;;;;10319813;28;19927;-61
2021/07/26 14:19:18;;;;;;;;;;;;;;;;;;10320529;28;19943;-61
2021/07/26 14:24:15;;;;;;;;;;;;;;;;;;10320148;28;19982;-61
2021/07/26 14:29:12;;;;;;;;;;;;;;;;;;10333114;28;20401;-61
2021/07/26 14:34:10;;;;;;;;;;;;;;;;;;10323966;28;19923;-62
2021/07/26 14:39:07;;;;;;;;;;;;;;;;;;10316997;28;20511;-62
2021/07/26 14:44:04;;;;;;;;;;;;;;;;;;10322682;28;19920;-62
2021/07/26 14:49:02;;;;;;;;;;;;;;;;;;10312791;28;19922;-61
2021/07/26 14:53:59;;;;;;;;;;;;;;;;;;10321013;28;19956;-61
2021/07/26 14:58:56;;;;;;;;;;;;;;;;;;10319956;28;19921;-60
2021/07/26 15:03:54;;;;;;;;;;;;;;;;;;10303623;28;19921;-60
2021/07/26 15:08:51;;;;;;;;;;;;;;;;;;10323759;28;19927;-61
2021/07/26 15:13:48;;;;;;;;;;;;;;;;;;10325042;28;20004;-61
2021/07/26 15:18:45;;;;;;;;;;;;;;;;;;10316428;28;19925;-61
2021/07/26 15:23:43;;;;;;;;;;;;;;;;;;10303664;28;20230;-61
2021/07/26 15:28:40;;;;;;;;;;;;;;;;;;10333305;28;19947;-61
2021/07/26 15:33:37;;;;;;;;;;;;;;;;;;10315757;28;20000;-61
2021/07/26 15:38:34;;;;;;;;;;;;;;;;;;10312062;28;19927;-60
2021/07/26 15:43:32;;;;;;;;;;;;;;;;;;10322101;28;19917;-61
2021/07/26 15:48:29;;;;;;;;;;;;;;;;;;10304999;28;20288;-61
2021/07/26 15:53:26;;;;;;;;;;;;;;;;;;10315180;28;19917;-60
2021/07/26 15:58:24;;;;;;;;;;;;;;;;;;10326740;28;19928;-60
2021/07/26 16:03:21;;;;;;;;;;;;;;;;;;10321674;28;19921;-60
2021/07/26 16:08:18;;;;;;;;;;;;;;;;;;10306824;28;20370;-61
2021/07/26 16:13:16;;;;;;;;;;;;;;;;;;10311677;28;19932;-61
2021/07/26 16:18:13;;;;;;;;;;;;;;;;;;10315612;28;20117;-61
2021/07/26 16:23:10;;;;;;;;;;;;;;;;;;10326428;28;19920;-61
2021/07/26 16:28:07;;;;;;;;;;;;;;;;;;10318431;28;20422;-61
2021/07/26 16:33:05;;;;;;;;;;;;;;;;;;10325332;28;19924;-60
2021/07/26 16:38:02;;;;;;;;;;;;;;;;;;10313655;28;19928;-60
2021/07/26 16:42:59;;;;;;;;;;;;;;;;;;10319688;28;19913;-61
2021/07/26 16:47:56;;;;;;;;;;;;;;;;;;10328687;28;19916;-61
2021/07/26 16:52:53;;;;;;;;;;;;;;;;;;10314161;28;19920;-60
2021/07/26 16:57:51;;;;;;;;;;;;;;;;;;10305845;28;20472;-60
2021/07/26 17:02:48;;;;;;;;;;;;;;;;;;10331766;28;19916;-60
2021/07/26 17:07:45;;;;;;;;;;;;;;;;;;10311539;28;19924;-60
2021/07/26 17:12:43;;;;;;;;;;;;;;;;;;10312086;28;19921;-60
2021/07/26 17:17:40;;;;;;;;;;;;;;;;;;10317296;28;20349;-60
2021/07/26 17:22:37;;;;;;;;;;;;;;;;;;10331394;28;19920;-60
2021/07/26 17:27:35;;;;;;;;;;;;;;;;;;10323812;28;19920;-60
2021/07/26 17:32:32;;;;;;;;;;;;;;;;;;10321903;28;20059;-60
2021/07/26 17:37:29;;;;;;;;;;;;;;;;;;10308689;28;20729;-61
2021/07/26 17:42:26;;;;;;;;;;;;;;;;;;10318135;28;20145;-60
2021/07/26 17:47:24;;;;;;;;;;;;;;;;;;10323913;28;19964;-61
2021/07/26 17:52:21;;;;;;;;;;;;;;;;;;10325651;28;20015;-62
2021/07/26 17:57:18;;;;;;;;;;;;;;;;;;10312650;28;19924;-61
2021/07/26 18:02:16;;;;;;;;;;;;;;;;;;10327673;28;20503;-61
2021/07/26 18:07:15;;;;;;;;;;;;;;;;;;10318304;28;19932;-61
2021/07/26 18:12:13;;;;;;;;;;;;;;;;;;10304465;28;20289;-62
2021/07/26 18:17:10;;;;;;;;;;;;;;;;;;10340965;28;19982;-62
2021/07/26 18:22:07;;;;;;;;;;;;;;;;;;10313287;28;19917;-61
2021/07/26 18:27:05;;;;;;;;;;;;;;;;;;10319399;28;19924;-61
2021/07/26 18:32:02;;;;;;;;;;;;;;;;;;10306124;28;20343;-61
2021/07/26 18:36:59;;;;;;;;;;;;;;;;;;10321344;28;20289;-60
2021/07/26 18:41:56;;;;;;;;;;;;;;;;;;10306145;28;19925;-61
2021/07/26 18:46:54;;;;;;;;;;;;;;;;;;10321007;28;20031;-61
2021/07/26 18:51:51;;;;;;;;;;;;;;;;;;10301344;28;19916;-60
2021/07/26 18:56:48;;;;;;;;;;;;;;;;;;10302778;28;20283;-61
2021/07/26 19:01:48;;;;;;;;;;;;;;;;;;10317478;28;19917;-61
2021/07/26 19:06:46;;;;;;;;;;;;;;;;;;10310641;28;19921;-61
2021/07/26 19:11:45;;;;;;;;;;;;;;;;;;10303535;28;20367;-60
2021/07/26 19:16:43;;;;;;;;;;;;;;;;;;10304223;28;20419;-61
2021/07/26 19:21:40;;;;;;;;;;;;;;;;;;10315271;28;19925;-61
2021/07/26 19:26:37;;;;;;;;;;;;;;;;;;10311046;28;19921;-61
2021/07/26 19:31:35;;;;;;;;;;;;;;;;;;10317382;28;19925;-61
2021/07/26 19:36:33;;;;;;;;;;;;;;;;;;10321952;28;20058;-62
2021/07/26 19:41:33;;;;;;;;;;;;;;;;;;10306513;28;19924;-63
2021/07/26 19:46:30;;;;;;;;;;;;;;;;;;10306532;28;19921;-62
2021/07/26 19:51:27;;;;;;;;;;;;;;;;;;10318188;28;19917;-61
2021/07/26 19:56:24;;;;;;;;;;;;;;;;;;10312272;28;19992;-61
2021/07/26 20:01:22;;;;;;;;;;;;;;;;;;10305875;28;20391;-61
2021/07/26 20:06:19;;;;;;;;;;;;;;;;;;10313456;28;19947;-61
2021/07/26 20:11:16;;;;;;;;;;;;;;;;;;10317004;28;19932;-60
2021/07/26 20:16:13;;;;;;;;;;;;;;;;;;10310573;28;20015;-60
2021/07/26 20:21:13;;;;;;;;;;;;;;;;;;10316096;28;20475;-60
2021/07/26 20:26:10;;;;;;;;;;;;;;;;;;10315310;28;20295;-61
2021/07/26 20:31:08;;;;;;;;;;;;;;;;;;10318006;28;19917;-62
2021/07/26 20:36:05;;;;;;;;;;;;;;;;;;10324839;28;19921;-61
2021/07/26 20:41:02;;;;;;;;;;;;;;;;;;10303511;28;19929;-60
2021/07/26 20:45:59;;;;;;;;;;;;;;;;;;10300585;28;19959;-59
2021/07/26 20:50:57;;;;;;;;;;;;;;;;;;10311912;28;19978;-60
2021/07/26 20:55:54;;;;;;;;;;;;;;;;;;10316798;28;19917;-60
2021/07/26 21:00:51;;;;;;;;;;;;;;;;;;10311405;28;19921;-60
2021/07/26 21:05:49;;;;;;;;;;;;;;;;;;10315549;28;19924;-60
2021/07/26 21:10:46;;;;;;;;;;;;;;;;;;10312716;28;19944;-61
2021/07/26 21:15:56;;;;;;;;;;;;;;;;;;10314825;28;19928;-61
2021/07/26 21:20:53;;;;;;;;;;;;;;;;;;10300079;28;19974;-59
2021/07/26 21:25:50;;;;;;;;;;;;;;;;;;10311114;28;19960;-60
2021/07/26 21:30:48;;;;;;;;;;;;;;;;;;10291067;28;20992;-58
2021/07/26 21:35:45;;;;;;;;;;;;;;;;;;10307628;28;20032;-60
2021/07/26 21:40:42;;;;;;;;;;;;;;;;;;10315007;28;20004;-59
2021/07/26 21:45:39;;;;;;;;;;;;;;;;;;10314425;28;20302;-60
2021/07/26 21:50:37;;;;;;;;;;;;;;;;;;10315464;28;19920;-60
2021/07/26 21:55:34;;;;;;;;;;;;;;;;;;10307839;28;19940;-59
2021/07/26 22:00:31;;;;;;;;;;;;;;;;;;10312532;28;19923;-59
2021/07/26 22:05:29;;;;;;;;;;;;;;;;;;10318865;28;19978;-60
2021/07/26 22:10:26;;;;;;;;;;;;;;;;;;10309425;28;19929;-59
2021/07/26 22:15:23;;;;;;;;;;;;;;;;;;10314859;28;20290;-60
2021/07/26 22:20:21;;;;;;;;;;;;;;;;;;10315427;28;19975;-60
2021/07/26 22:25:18;;;;;;;;;;;;;;;;;;10321401;28;19921;-59
2021/07/26 22:30:15;;;;;;;;;;;;;;;;;;10317942;28;19925;-59
2021/07/26 22:35:12;;;;;;;;;;;;;;;;;;10318797;28;19970;-60
2021/07/26 22:40:10;;;;;;;;;;;;;;;;;;10313169;28;19925;-60
2021/07/26 22:45:07;;;;;;;;;;;;;;;;;;10301383;28;19927;-59
2021/07/26 22:50:04;;;;;;;;;;;;;;;;;;10310766;28;20008;-60
2021/07/26 22:55:01;;;;;;;;;;;;;;;;;;10297289;28;19987;-60
2021/07/26 22:59:59;;;;;;;;;;;;;;;;;;10316939;28;19917;-60
2021/07/26 23:04:57;;;;;;;;;;;;;;;;;;10310897;28;19916;-61
2021/07/26 23:09:54;;;;;;;;;;;;;;;;;;10314504;28;19920;-61
2021/07/26 23:14:51;;;;;;;;;;;;;;;;;;10315882;28;19974;-62
2021/07/26 23:19:48;;;;;;;;;;;;;;;;;;10307253;28;20397;-60
2021/07/26 23:24:46;;;;;;;;;;;;;;;;;;10301826;28;20290;-59
2021/07/26 23:29:44;;;;;;;;;;;;;;;;;;10311828;28;19936;-60
2021/07/26 23:34:41;;;;;;;;;;;;;;;;;;10317355;28;19921;-60
2021/07/26 23:39:38;;;;;;;;;;;;;;;;;;10327164;28;19971;-59
2021/07/26 23:44:35;;;;;;;;;;;;;;;;;;10301991;28;19940;-60
2021/07/26 23:49:33;;;;;;;;;;;;;;;;;;10316121;28;19951;-58
2021/07/26 23:54:30;;;;;;;;;;;;;;;;;;10311038;28;20409;-60
2021/07/26 23:59:27;;;;;;;;;;;;;;;;;;10321476;28;19928;-58
